Time;durP1;ratioP1;P1;durP2;ratioP2;P2;SDS_P1;SDS_P2;PMS_P1;PMS_P2;Temp;Humidity;BMP_temperature;BMP_pressure;BME280_temperature;BME280_humidity;BME280_pressure;Samples;Min_cycle;Max_cycle;Signal;HPM_P1;HPM_P2
2022/10/15 00:01:25;;;;;;;0.90;0.90;;;15.10;99.90;16.30;100576.00;;;;5075533;28;20181;-65
2022/10/15 00:03:50;;;;;;;0.50;0.50;;;15.20;99.90;16.20;100581.00;;;;5074404;28;20197;-65
2022/10/15 00:06:19;;;;;;;0.80;0.80;;;15.30;99.90;16.40;100588.00;;;;5074376;28;20270;-65
2022/10/15 00:08:46;;;;;;;0.50;0.50;;;15.40;99.90;16.50;100590.00;;;;5091160;28;20185;-65
2022/10/15 00:11:18;;;;;;;0.60;0.60;;;15.50;99.90;16.40;100583.00;;;;5074149;28;20267;-65
2022/10/15 00:13:45;;;;;;;0.50;0.50;;;15.40;99.90;16.30;100575.00;;;;5075338;28;20505;-66
2022/10/15 00:16:18;;;;;;;0.50;0.50;;;15.40;99.90;15.80;100570.00;;;;5075245;28;20184;-65
2022/10/15 00:18:44;;;;;;;1.27;1.27;;;15.20;99.90;15.80;100565.00;;;;5075265;28;20189;-65
2022/10/15 00:21:18;;;;;;;0.40;0.40;;;15.10;99.90;15.80;100579.00;;;;5090892;28;20632;-66
2022/10/15 00:23:44;;;;;;;0.70;0.70;;;15.10;99.90;15.80;100578.00;;;;5075226;28;20253;-65
2022/10/15 00:26:21;;;;;;;0.50;0.50;;;15.00;99.90;15.60;100586.00;;;;5090707;28;20177;-65
2022/10/15 00:28:50;;;;;;;0.50;0.50;;;15.10;99.90;15.90;100581.00;;;;5075353;28;20187;-65
2022/10/15 00:31:23;;;;;;;0.80;0.80;;;15.00;99.90;15.90;100591.00;;;;5074941;28;20188;-65
2022/10/15 00:33:50;;;;;;;0.50;0.50;;;15.10;99.90;16.00;100598.00;;;;5073663;28;20194;-65
2022/10/15 00:36:23;;;;;;;0.40;0.40;;;15.10;99.90;15.70;100594.00;;;;5074888;28;20176;-65
2022/10/15 00:38:50;;;;;;;1.33;1.23;;;15.00;99.90;15.50;100597.00;;;;5074779;28;20295;-65
2022/10/15 00:41:30;;;;;;;0.70;0.70;;;14.90;99.90;15.80;100608.00;;;;5090517;28;20315;-65
2022/10/15 00:44:24;;;;;;;0.80;0.80;;;14.90;99.90;15.90;100599.00;;;;5073275;28;20181;-65
2022/10/15 00:47:16;;;;;;;0.70;0.70;;;15.00;99.90;15.60;100602.00;;;;5090426;28;20217;-65
2022/10/15 00:50:11;;;;;;;1.33;1.23;;;14.90;99.90;15.60;100589.00;;;;5090403;28;20172;-65
2022/10/15 00:53:05;;;;;;;0.50;0.50;;;14.90;99.90;15.70;100591.00;;;;5090145;28;20227;-66
2022/10/15 00:55:39;;;;;;;0.40;0.40;;;15.00;99.90;15.60;100590.00;;;;5055667;28;20193;-65
2022/10/15 00:58:16;;;;;;;0.50;0.50;;;15.00;99.90;16.10;100580.00;;;;5090043;28;20179;-65
2022/10/15 01:00:42;;;;;;;0.50;0.50;;;15.10;99.90;15.90;100573.00;;;;5090017;28;20188;-66
2022/10/15 01:03:11;;;;;;;1.80;1.67;;;15.10;99.90;15.70;100537.00;;;;5072831;28;20202;-65
2022/10/15 01:05:38;;;;;;;0.50;0.50;;;15.00;99.90;15.80;100568.00;;;;5090023;28;20343;-65
2022/10/15 01:08:04;;;;;;;0.50;0.50;;;15.00;99.90;16.10;100574.00;;;;5072784;28;20573;-66
2022/10/15 01:11:10;;;;;;;0.90;0.90;;;15.20;99.90;15.50;100568.00;;;;5072855;28;20228;-65
2022/10/15 01:13:56;;;;;;;1.13;1.13;;;15.00;99.90;15.80;100559.00;;;;5074364;28;20182;-65
2022/10/15 01:16:49;;;;;;;0.50;0.50;;;15.00;99.90;15.20;100561.00;;;;5074274;28;20176;-65
2022/10/15 01:19:26;;;;;;;0.40;0.40;;;14.80;99.90;15.60;100561.00;;;;5073985;28;20202;-66
2022/10/15 01:22:11;;;;;;;0.40;0.40;;;14.80;99.90;16.00;100527.00;;;;5072933;28;20193;-65
2022/10/15 01:25:14;;;;;;;0.40;0.40;;;15.10;99.90;15.80;100557.00;;;;5072893;28;20183;-66
2022/10/15 01:28:17;;;;;;;0.50;0.50;;;15.00;99.90;15.70;100547.00;;;;5071960;28;20185;-65
2022/10/15 01:30:54;;;;;;;1.73;1.70;;;14.80;99.90;15.50;100515.00;;;;5072346;28;20246;-65
2022/10/15 01:33:44;;;;;;;0.77;0.77;;;14.80;99.90;15.70;100516.00;;;;5072437;28;20266;-65
2022/10/15 01:36:38;;;;;;;0.73;0.73;;;14.80;99.90;15.20;100538.00;;;;5089639;28;20602;-65
2022/10/15 01:39:32;;;;;;;1.13;0.87;;;14.60;99.90;14.90;100510.00;;;;5072618;28;20258;-65
2022/10/15 01:42:12;;;;;;;1.07;1.07;;;14.50;99.90;15.10;100532.00;;;;5089193;28;20175;-65
2022/10/15 01:44:50;;;;;;;0.40;0.40;;;14.50;99.90;15.00;100543.00;;;;5073626;28;20209;-65
2022/10/15 01:47:21;;;;;;;0.37;0.37;;;14.40;99.90;15.00;100544.00;;;;5072302;28;20706;-65
2022/10/15 01:49:51;;;;;;;2.27;1.37;;;14.40;99.90;14.90;100539.00;;;;5072220;28;20194;-65
2022/10/15 01:52:23;;;;;;;0.57;0.57;;;14.40;99.90;14.80;100535.00;;;;5089069;28;20215;-65
2022/10/15 01:54:51;;;;;;;0.40;0.40;;;14.30;99.90;14.70;100527.00;;;;5088901;28;20232;-65
2022/10/15 01:57:19;;;;;;;0.40;0.40;;;14.20;99.90;14.80;100537.00;;;;5089343;28;20163;-66
2022/10/15 01:59:45;;;;;;;0.50;0.50;;;14.20;99.90;14.70;100524.00;;;;5089040;28;20262;-66
2022/10/15 02:02:12;;;;;;;0.40;0.40;;;14.20;99.90;14.70;100530.00;;;;5072166;28;20634;-66
2022/10/15 02:04:39;;;;;;;0.50;0.50;;;14.20;99.90;14.80;100520.00;;;;5088936;28;20182;-65
2022/10/15 02:07:33;;;;;;;2.00;1.90;;;14.20;99.90;14.90;100511.00;;;;5073163;28;20189;-65
2022/10/15 02:10:05;;;;;;;1.50;1.40;;;14.20;99.90;14.80;100509.00;;;;5072300;28;20184;-65
2022/10/15 02:13:15;;;;;;;1.10;1.10;;;14.20;99.90;14.70;100503.00;;;;5088958;28;20217;-65
2022/10/15 02:15:44;;;;;;;0.43;0.43;;;14.20;99.90;14.70;100498.00;;;;5054135;28;20193;-65
2022/10/15 02:18:35;;;;;;;1.47;1.37;;;14.10;99.90;14.40;100502.00;;;;5054633;28;20278;-66
2022/10/15 02:21:17;;;;;;;0.40;0.40;;;13.90;99.90;14.50;100487.00;;;;5048784;28;20529;-65
2022/10/15 02:23:53;;;;;;;0.40;0.40;;;14.00;99.90;14.40;100489.00;;;;5088587;28;20520;-65
2022/10/15 02:26:24;;;;;;;0.60;0.60;;;13.90;99.90;14.40;100487.00;;;;5071331;28;20193;-65
2022/10/15 02:28:54;;;;;;;0.70;0.70;;;13.90;99.90;14.20;100495.00;;;;5088578;28;20181;-65
2022/10/15 02:31:22;;;;;;;0.60;0.60;;;13.80;99.90;14.10;100496.00;;;;5071821;28;20206;-66
2022/10/15 02:33:51;;;;;;;0.50;0.50;;;13.70;99.90;14.10;100499.00;;;;5088969;28;20181;-65
2022/10/15 02:36:21;;;;;;;0.40;0.40;;;13.70;99.90;14.20;100496.00;;;;5088717;28;20189;-65
2022/10/15 02:38:49;;;;;;;0.50;0.50;;;13.70;99.90;14.20;100495.00;;;;5071820;28;20185;-65
2022/10/15 02:41:16;;;;;;;0.40;0.40;;;13.60;99.90;14.30;100503.00;;;;5088512;28;20625;-65
2022/10/15 02:43:42;;;;;;;0.40;0.40;;;13.70;99.90;14.00;100498.00;;;;5071954;28;20641;-65
2022/10/15 02:46:11;;;;;;;0.40;0.40;;;13.60;99.90;14.10;100500.00;;;;5072097;28;20196;-65
2022/10/15 02:48:37;;;;;;;0.40;0.40;;;13.60;99.90;14.20;100490.00;;;;5088635;28;20588;-65
2022/10/15 02:51:03;;;;;;;0.60;0.60;;;13.60;99.90;14.10;100496.00;;;;5088442;28;20188;-65
2022/10/15 02:53:32;;;;;;;0.50;0.50;;;13.60;99.90;14.20;100483.00;;;;5088427;28;20645;-65
2022/10/15 02:55:58;;;;;;;3.03;1.33;;;13.60;99.90;14.10;100492.00;;;;5071385;28;20212;-65
2022/10/15 02:58:30;;;;;;;0.57;0.57;;;13.60;99.90;14.10;100487.00;;;;5071809;28;20208;-66
2022/10/15 03:00:56;;;;;;;1.13;1.13;;;13.60;99.90;13.70;100473.00;;;;5087963;28;20255;-65
2022/10/15 03:03:22;;;;;;;0.80;0.80;;;13.50;99.90;13.90;100475.00;;;;5088415;28;20210;-65
2022/10/15 03:05:48;;;;;;;4.00;3.80;;;13.40;99.90;13.90;100478.00;;;;5088490;28;20222;-65
2022/10/15 03:08:14;;;;;;;0.40;0.40;;;13.50;99.90;13.90;100475.00;;;;5071736;28;20184;-65
2022/10/15 03:10:40;;;;;;;3.10;2.80;;;13.40;99.90;13.70;100466.00;;;;5088050;28;20176;-65
2022/10/15 03:13:06;;;;;;;1.53;1.43;;;13.40;99.90;13.80;100467.00;;;;5071688;28;20230;-65
2022/10/15 03:15:32;;;;;;;1.33;1.23;;;13.40;99.90;13.80;100463.00;;;;5088159;28;20180;-65
2022/10/15 03:17:58;;;;;;;0.80;0.80;;;13.40;99.90;13.70;100475.00;;;;5088545;28;20185;-65
2022/10/15 03:20:24;;;;;;;1.23;1.17;;;13.40;99.90;13.80;100463.00;;;;5075175;28;20178;-65
2022/10/15 03:22:50;;;;;;;1.63;1.57;;;13.40;99.90;13.80;100459.00;;;;5092248;28;20544;-65
2022/10/15 03:25:16;;;;;;;0.50;0.50;;;13.40;99.90;13.80;100458.00;;;;5075111;28;20183;-65
2022/10/15 03:27:42;;;;;;;1.33;1.23;;;13.30;99.90;13.60;100448.00;;;;5074929;28;20854;-65
2022/10/15 03:30:09;;;;;;;0.40;0.40;;;13.30;99.90;13.80;100449.00;;;;5075169;28;20197;-65
2022/10/15 03:32:34;;;;;;;1.77;1.63;;;13.30;99.90;13.60;100457.00;;;;5074687;28;20578;-65
2022/10/15 03:35:00;;;;;;;1.00;1.00;;;13.30;99.90;13.50;100449.00;;;;5076708;28;20175;-65
2022/10/15 03:37:26;;;;;;;2.20;1.90;;;13.20;99.90;13.60;100448.00;;;;5092379;28;20170;-65
2022/10/15 03:39:52;;;;;;;1.40;1.40;;;13.30;99.90;13.70;100444.00;;;;5074898;28;20592;-65
2022/10/15 03:42:18;;;;;;;3.93;1.97;;;13.30;99.90;13.60;100449.00;;;;5074754;28;20545;-65
2022/10/15 03:44:44;;;;;;;0.53;0.53;;;13.30;99.90;13.70;100446.00;;;;5074859;28;20195;-66
2022/10/15 03:47:10;;;;;;;1.20;0.60;;;13.30;99.90;13.90;100454.00;;;;5092076;28;20291;-65
2022/10/15 03:49:39;;;;;;;2.03;1.23;;;13.40;99.90;13.80;100442.00;;;;5074855;28;20219;-66
2022/10/15 03:52:08;;;;;;;0.77;0.77;;;13.40;99.90;14.00;100440.00;;;;5091541;28;20289;-66
2022/10/15 03:54:33;;;;;;;0.70;0.70;;;13.50;99.90;13.90;100431.00;;;;5090940;28;20233;-66
2022/10/15 03:56:59;;;;;;;0.50;0.50;;;13.40;99.90;13.90;100432.00;;;;5074689;28;20185;-66
2022/10/15 03:59:25;;;;;;;0.73;0.73;;;13.40;99.90;14.00;100429.00;;;;5076240;28;20174;-67
2022/10/15 04:01:51;;;;;;;1.63;1.53;;;13.50;99.90;13.80;100422.00;;;;5074315;28;20548;-66
2022/10/15 04:04:17;;;;;;;3.80;3.50;;;13.50;99.90;13.90;100428.00;;;;5074647;28;20184;-66
2022/10/15 04:06:46;;;;;;;2.67;2.20;;;13.50;99.90;13.90;100430.00;;;;5090934;28;20549;-66
2022/10/15 04:09:14;;;;;;;1.43;1.40;;;13.50;99.90;13.90;100438.00;;;;5091021;28;20257;-66
2022/10/15 04:11:40;;;;;;;0.77;0.73;;;13.50;99.90;14.00;100425.00;;;;5091058;28;20201;-66
2022/10/15 04:14:06;;;;;;;3.20;2.67;;;13.50;99.90;13.70;100429.00;;;;5074265;28;20180;-66
2022/10/15 04:16:35;;;;;;;2.23;2.03;;;13.40;99.90;13.80;100422.00;;;;5074092;28;20218;-66
2022/10/15 04:19:01;;;;;;;0.97;0.97;;;13.50;99.90;13.80;100426.00;;;;5074309;28;20540;-66
2022/10/15 04:21:26;;;;;;;1.13;1.13;;;13.50;99.90;14.00;100424.00;;;;5074021;28;20269;-66
2022/10/15 04:23:52;;;;;;;0.83;0.83;;;13.50;99.90;14.10;100424.00;;;;5074196;28;20184;-66
2022/10/15 04:26:21;;;;;;;1.37;1.37;;;13.60;99.90;14.20;100425.00;;;;5074647;28;20177;-66
2022/10/15 04:28:47;;;;;;;1.37;1.27;;;13.60;99.90;13.90;100420.00;;;;5073743;28;20193;-66
2022/10/15 04:31:13;;;;;;;1.07;1.07;;;13.60;99.90;14.30;100429.00;;;;5090536;28;20181;-66
2022/10/15 04:33:39;;;;;;;3.97;1.90;;;13.70;99.90;14.30;100433.00;;;;5073975;28;20181;-66
2022/10/15 04:36:12;;;;;;;2.83;1.80;;;13.80;99.90;14.00;100404.00;;;;5074007;28;20178;-66
2022/10/15 04:38:38;;;;;;;1.30;1.20;;;13.70;99.90;13.90;100428.00;;;;5073672;28;20627;-66
2022/10/15 04:41:08;;;;;;;2.87;2.70;;;13.60;99.90;14.00;100428.00;;;;5073683;28;20174;-66
2022/10/15 04:43:35;;;;;;;4.30;3.80;;;13.60;99.90;14.10;100421.00;;;;5090593;28;20188;-66
2022/10/15 04:46:04;;;;;;;2.80;2.43;;;13.70;99.90;14.00;100393.00;;;;5073931;28;20261;-66
2022/10/15 04:48:32;;;;;;;0.50;0.50;;;13.70;99.90;14.00;100423.00;;;;5090573;28;20193;-67
2022/10/15 04:51:20;;;;;;;3.13;2.43;;;13.70;99.90;14.10;100419.00;;;;5090431;28;20178;-66
2022/10/15 04:53:49;;;;;;;1.77;1.63;;;13.70;99.90;14.10;100397.00;;;;5074680;28;20619;-66
2022/10/15 04:56:19;;;;;;;1.23;1.13;;;13.70;99.90;14.10;100421.00;;;;5090136;28;20642;-66
2022/10/15 04:58:46;;;;;;;1.70;1.43;;;13.70;99.90;14.00;100415.00;;;;5074770;28;20169;-66
2022/10/15 05:01:17;;;;;;;0.40;0.40;;;13.70;99.90;14.30;100420.00;;;;5074894;28;20187;-66
2022/10/15 05:03:48;;;;;;;1.63;1.53;;;13.80;99.90;14.20;100371.00;;;;5073390;28;20194;-66
2022/10/15 05:06:20;;;;;;;0.40;0.40;;;13.80;99.90;14.20;100408.00;;;;5073420;28;20183;-66
2022/10/15 05:08:48;;;;;;;0.73;0.73;;;13.80;99.90;14.20;100414.00;;;;5089781;28;20629;-66
2022/10/15 05:11:22;;;;;;;1.27;1.20;;;13.80;99.90;14.20;100412.00;;;;5073470;28;20180;-66
2022/10/15 05:13:48;;;;;;;0.50;0.50;;;13.80;99.90;14.00;100373.00;;;;5073263;28;20677;-66
2022/10/15 05:16:14;;;;;;;2.03;1.93;;;13.80;99.90;14.10;100406.00;;;;5090120;28;20199;-66
2022/10/15 05:18:45;;;;;;;1.17;1.07;;;13.70;99.90;14.30;100402.00;;;;5089795;28;20595;-66
2022/10/15 05:21:12;;;;;;;3.03;2.50;;;13.80;99.90;14.40;100410.00;;;;5074009;28;20189;-66
2022/10/15 05:23:39;;;;;;;3.27;2.80;;;13.90;99.90;14.20;100402.00;;;;5089813;28;20181;-66
2022/10/15 05:26:10;;;;;;;3.13;2.97;;;13.80;99.90;14.20;100411.00;;;;5074316;28;20189;-66
2022/10/15 05:28:36;;;;;;;7.53;4.90;;;13.80;99.90;14.00;100399.00;;;;5072762;28;20182;-66
2022/10/15 05:31:08;;;;;;;2.90;2.37;;;13.80;99.90;13.90;100395.00;;;;5089631;28;20269;-66
2022/10/15 05:33:34;;;;;;;0.90;0.90;;;13.80;99.90;14.20;100373.00;;;;5089572;28;20218;-66
2022/10/15 05:36:16;;;;;;;0.90;0.90;;;13.90;99.90;14.40;100391.00;;;;5089687;28;20639;-66
2022/10/15 05:38:48;;;;;;;1.57;1.57;;;13.90;99.90;14.60;100388.00;;;;5089177;28;20175;-66
2022/10/15 05:41:14;;;;;;;1.53;1.53;;;14.00;99.90;14.30;100364.00;;;;5073473;28;20174;-66
2022/10/15 05:43:41;;;;;;;1.90;1.90;;;14.00;99.90;14.40;100387.00;;;;5089609;28;20179;-66
2022/10/15 05:46:07;;;;;;;0.70;0.70;;;14.00;99.90;14.40;100348.00;;;;5072752;28;20272;-65
2022/10/15 05:48:36;;;;;;;2.00;1.90;;;14.00;99.90;14.40;100370.00;;;;5072313;28;20205;-65
2022/10/15 05:51:05;;;;;;;3.70;3.30;;;14.00;99.90;14.20;100338.00;;;;5072553;28;20178;-66
2022/10/15 05:53:31;;;;;;;3.13;2.93;;;13.90;99.90;14.00;100375.00;;;;5072497;28;20289;-66
2022/10/15 05:55:57;;;;;;;1.67;1.57;;;13.80;99.90;14.30;100362.00;;;;5089640;28;20625;-65
2022/10/15 05:58:25;;;;;;;1.37;1.37;;;13.80;99.90;14.60;100375.00;;;;5089331;28;20181;-65
2022/10/15 06:00:57;;;;;;;0.83;0.83;;;13.90;99.90;14.30;100372.00;;;;5072089;28;20187;-66
2022/10/15 06:03:26;;;;;;;0.50;0.50;;;13.90;99.90;14.30;100373.00;;;;5073867;28;20170;-67
2022/10/15 06:05:52;;;;;;;0.60;0.60;;;13.90;99.90;14.40;100373.00;;;;5073345;28;20541;-65
2022/10/15 06:08:19;;;;;;;0.60;0.60;;;13.90;99.90;14.40;100377.00;;;;5089221;28;20176;-65
2022/10/15 06:10:46;;;;;;;1.10;1.10;;;13.90;99.90;14.50;100336.00;;;;5055371;28;20339;-65
2022/10/15 06:13:12;;;;;;;1.13;1.13;;;13.90;99.90;14.20;100360.00;;;;5035340;28;20214;-65
2022/10/15 06:15:44;;;;;;;2.40;2.30;;;13.90;99.90;14.30;100335.00;;;;5052587;28;20194;-65
2022/10/15 06:18:15;;;;;;;1.10;1.10;;;13.80;99.90;14.40;100355.00;;;;5035449;28;20178;-65
2022/10/15 06:20:50;;;;;;;0.50;0.50;;;13.80;99.90;14.20;100357.00;;;;5035407;28;20625;-65
2022/10/15 06:23:15;;;;;;;0.80;0.80;;;13.80;99.90;14.40;100362.00;;;;5053503;28;20180;-65
2022/10/15 06:25:43;;;;;;;1.13;1.13;;;13.90;99.90;14.40;100362.00;;;;5035273;28;20267;-65
2022/10/15 06:28:10;;;;;;;0.70;0.70;;;13.90;99.90;14.50;100350.00;;;;5035634;28;20186;-65
2022/10/15 06:30:36;;;;;;;1.07;1.07;;;13.90;99.90;14.50;100349.00;;;;5051855;28;20181;-65
2022/10/15 06:33:02;;;;;;;1.47;1.30;;;14.00;99.90;14.40;100357.00;;;;5034988;28;20265;-65
2022/10/15 06:35:29;;;;;;;0.80;0.80;;;13.90;99.90;14.60;100342.00;;;;5052116;28;20693;-65
2022/10/15 06:37:59;;;;;;;1.03;1.03;;;14.00;99.90;14.80;100354.00;;;;5052223;28;20489;-65
2022/10/15 06:40:25;;;;;;;2.00;1.90;;;14.00;99.90;14.70;100338.00;;;;5052880;28;20180;-65
2022/10/15 06:42:50;;;;;;;2.50;2.00;;;14.10;99.90;14.50;100337.00;;;;5035517;28;20535;-65
2022/10/15 06:45:17;;;;;;;8.13;4.23;;;14.00;99.90;14.50;100336.00;;;;5035504;28;20179;-65
2022/10/15 06:47:42;;;;;;;1.03;1.03;;;14.10;99.90;14.70;100331.00;;;;5035000;28;20624;-65
2022/10/15 06:50:09;;;;;;;0.60;0.60;;;14.10;99.90;14.80;100294.00;;;;5035112;28;20266;-65
2022/10/15 06:52:34;;;;;;;0.80;0.80;;;14.20;99.90;14.90;100323.00;;;;5051758;28;20681;-65
2022/10/15 06:55:00;;;;;;;1.23;1.23;;;14.20;99.90;15.10;100337.00;;;;5038578;28;20188;-65
2022/10/15 06:57:27;;;;;;;0.70;0.70;;;14.30;99.90;14.80;100333.00;;;;5039111;28;20191;-65
2022/10/15 06:59:54;;;;;;;0.90;0.90;;;14.30;99.90;15.00;100316.00;;;;5055899;28;20542;-65
2022/10/15 07:02:23;;;;;;;2.57;1.33;;;14.30;99.90;14.70;100315.00;;;;5055517;28;20643;-65
2022/10/15 07:04:49;;;;;;;1.60;1.20;;;14.30;99.90;14.50;100318.00;;;;5055731;28;20318;-65
2022/10/15 07:07:15;;;;;;;0.70;0.70;;;14.20;99.90;14.60;100315.00;;;;5038742;28;20701;-65
2022/10/15 07:09:41;;;;;;;1.57;1.47;;;14.20;99.90;14.70;100302.00;;;;5039164;28;20187;-65
2022/10/15 07:12:07;;;;;;;1.53;1.30;;;14.30;99.90;14.90;100300.00;;;;5039029;28;20215;-65
2022/10/15 07:14:33;;;;;;;2.07;1.80;;;14.40;99.90;14.90;100314.00;;;;5038918;28;20552;-65
2022/10/15 07:16:59;;;;;;;1.47;1.07;;;14.40;99.90;15.10;100303.00;;;;5038501;28;20180;-65
2022/10/15 07:19:27;;;;;;;1.30;1.30;;;14.50;99.90;15.10;100301.00;;;;5038918;28;20271;-65
2022/10/15 07:21:54;;;;;;;1.57;1.47;;;14.60;99.90;15.00;100304.00;;;;5038860;28;20184;-65
2022/10/15 07:24:20;;;;;;;0.87;0.87;;;14.60;99.90;15.10;100301.00;;;;5055960;28;20185;-65
2022/10/15 07:26:49;;;;;;;1.80;1.70;;;14.70;99.90;15.00;100301.00;;;;5038422;28;20662;-65
2022/10/15 07:29:15;;;;;;;0.50;0.50;;;14.60;99.90;15.10;100297.00;;;;5039158;28;20172;-65
2022/10/15 07:31:42;;;;;;;1.10;1.10;;;14.70;99.90;15.00;100293.00;;;;5038011;28;20215;-65
2022/10/15 07:34:08;;;;;;;1.37;1.33;;;14.70;99.90;15.10;100302.00;;;;5056774;28;20582;-65
2022/10/15 07:36:37;;;;;;;1.07;1.00;;;14.70;99.90;15.00;100293.00;;;;5054961;28;20180;-65
2022/10/15 07:39:08;;;;;;;2.47;2.33;;;14.70;99.90;15.10;100296.00;;;;5039074;28;20183;-65
2022/10/15 07:41:34;;;;;;;0.97;0.87;;;14.70;99.90;15.10;100291.00;;;;5038198;28;20190;-65
2022/10/15 07:44:00;;;;;;;1.07;1.07;;;14.70;99.90;15.20;100281.00;;;;5054871;28;20196;-65
2022/10/15 07:46:29;;;;;;;1.33;1.30;;;14.70;99.90;15.20;100288.00;;;;5038138;28;20215;-65
2022/10/15 07:48:54;;;;;;;1.87;1.67;;;14.80;99.90;15.30;100285.00;;;;5038672;28;20184;-65
2022/10/15 07:51:23;;;;;;;0.70;0.70;;;14.80;99.90;15.30;100274.00;;;;5055857;28;20180;-65
2022/10/15 07:53:49;;;;;;;1.50;1.40;;;14.70;99.90;15.20;100248.00;;;;5038352;28;20181;-65
2022/10/15 07:56:16;;;;;;;1.63;1.53;;;14.80;99.90;15.50;100275.00;;;;5056023;28;20247;-65
2022/10/15 07:58:42;;;;;;;2.20;2.00;;;14.90;99.90;15.30;100279.00;;;;5054415;28;20172;-65
2022/10/15 08:01:09;;;;;;;4.70;2.53;;;15.00;99.90;15.30;100277.00;;;;5037928;28;20188;-65
2022/10/15 08:03:36;;;;;;;1.00;1.00;;;14.90;99.90;15.60;100276.00;;;;5055920;28;20195;-65
2022/10/15 08:06:06;;;;;;;1.90;1.73;;;15.00;99.90;15.50;100265.00;;;;5055369;28;20175;-65
2022/10/15 08:08:34;;;;;;;1.50;1.40;;;15.00;99.90;15.40;100269.00;;;;5037831;28;20538;-65
2022/10/15 08:11:11;;;;;;;2.00;1.90;;;15.00;99.90;15.40;100263.00;;;;5054349;28;20177;-65
2022/10/15 08:13:40;;;;;;;1.50;1.40;;;14.90;99.90;15.50;100247.00;;;;5053802;28;20216;-65
2022/10/15 08:16:08;;;;;;;4.20;2.47;;;15.00;99.90;15.20;100253.00;;;;5037875;28;20190;-65
2022/10/15 08:18:35;;;;;;;0.60;0.60;;;14.90;99.90;15.50;100257.00;;;;5054561;28;20176;-66
2022/10/15 08:21:04;;;;;;;2.50;1.83;;;15.00;99.90;15.30;100263.00;;;;5054361;28;20188;-65
2022/10/15 08:23:33;;;;;;;1.00;1.00;;;14.90;99.90;15.40;100263.00;;;;5038058;28;20220;-65
2022/10/15 08:26:00;;;;;;;0.60;0.60;;;15.00;99.90;15.60;100263.00;;;;5054253;28;20268;-65
2022/10/15 08:28:49;;;;;;;1.70;1.03;;;15.00;99.90;15.50;100264.00;;;;5054787;28;20314;-65
2022/10/15 08:31:21;;;;;;;0.80;0.80;;;15.00;99.90;15.60;100269.00;;;;5054165;28;20183;-65
2022/10/15 08:34:09;;;;;;;2.10;2.00;;;15.00;99.90;15.40;100246.00;;;;5055170;28;20590;-65
2022/10/15 08:37:15;;;;;;;1.77;1.63;;;15.00;99.90;15.60;100272.00;;;;5037306;28;20176;-65
2022/10/15 08:40:02;;;;;;;0.97;0.97;;;15.00;99.90;15.40;100273.00;;;;5053744;28;20224;-65
2022/10/15 08:42:52;;;;;;;1.00;1.00;;;15.00;99.90;15.70;100272.00;;;;5070287;28;20184;-65
2022/10/15 08:45:32;;;;;;;2.93;2.03;;;15.10;99.90;15.50;100271.00;;;;5085887;28;20211;-65
2022/10/15 08:48:05;;;;;;;1.47;1.37;;;15.20;99.90;15.30;100270.00;;;;5037314;28;20190;-65
2022/10/15 08:51:15;;;;;;;1.73;1.63;;;15.10;99.90;15.50;100268.00;;;;5037119;28;20721;-65
2022/10/15 08:53:57;;;;;;;1.10;1.10;;;15.20;99.90;15.70;100269.00;;;;5047755;28;20230;-65
2022/10/15 08:56:52;;;;;;;1.00;1.00;;;15.30;99.90;15.80;100239.00;;;;5053724;28;20171;-65
2022/10/15 08:59:37;;;;;;;1.17;1.00;;;15.30;99.90;15.90;100269.00;;;;5053349;28;20183;-65
2022/10/15 09:02:20;;;;;;;0.77;0.77;;;15.40;99.90;15.80;100273.00;;;;5053437;28;20173;-65
2022/10/15 09:05:22;;;;;;;0.80;0.80;;;15.50;99.90;16.10;100280.00;;;;5053237;28;20181;-65
2022/10/15 09:08:26;;;;;;;1.70;1.33;;;15.60;99.90;15.70;100262.00;;;;5053254;28;20633;-66
2022/10/15 09:11:46;;;;;;;0.60;0.60;;;15.50;99.90;16.00;100274.00;;;;5053277;28;20300;-65
2022/10/15 09:14:40;;;;;;;1.87;1.77;;;15.60;99.90;16.00;100262.00;;;;5035375;28;20201;-65
2022/10/15 09:17:31;;;;;;;1.43;1.30;;;15.60;99.90;15.90;100258.00;;;;5034608;28;20670;-65
2022/10/15 09:20:12;;;;;;;0.60;0.60;;;15.70;99.90;15.90;100242.00;;;;5035426;28;20189;-65
2022/10/15 09:22:50;;;;;;;0.50;0.50;;;15.70;99.90;16.20;100258.00;;;;5035416;28;20691;-65
2022/10/15 09:25:36;;;;;;;0.50;0.50;;;15.80;99.90;16.40;100256.00;;;;5035612;28;20257;-66
2022/10/15 09:28:10;;;;;;;0.90;0.70;;;15.90;99.90;16.10;100254.00;;;;5035469;28;20179;-66
2022/10/15 09:30:56;;;;;;;0.53;0.53;;;15.80;99.90;16.20;100250.00;;;;5035459;28;20291;-65
2022/10/15 09:33:47;;;;;;;0.97;0.97;;;15.80;99.90;16.40;100263.00;;;;5051828;28;20275;-66
2022/10/15 09:36:40;;;;;;;1.07;1.03;;;15.90;99.90;16.40;100259.00;;;;5035292;28;20166;-66
2022/10/15 09:39:53;;;;;;;0.70;0.70;;;15.90;99.90;16.70;100257.00;;;;5036160;28;20263;-66
2022/10/15 09:42:45;;;;;;;0.70;0.63;;;16.00;99.90;16.50;100264.00;;;;5051498;28;20281;-65
2022/10/15 09:45:33;;;;;;;0.40;0.40;;;16.10;99.90;16.50;100272.00;;;;5051075;28;20191;-65
2022/10/15 09:48:21;;;;;;;0.50;0.50;;;16.10;99.90;16.60;100259.00;;;;5084956;28;20199;-66
2022/10/15 09:51:01;;;;;;;0.70;0.70;;;16.30;99.90;16.80;100234.00;;;;5052477;28;20221;-65
2022/10/15 09:53:44;;;;;;;0.43;0.43;;;16.40;99.90;16.60;100257.00;;;;5053566;28;20216;-65
2022/10/15 09:56:23;;;;;;;1.70;1.67;;;16.30;99.90;16.90;100259.00;;;;5053046;28;20192;-66
2022/10/15 09:58:57;;;;;;;0.50;0.50;;;16.40;99.90;16.90;100254.00;;;;5052540;28;20189;-66
2022/10/15 10:01:27;;;;;;;0.90;0.90;;;16.50;99.90;17.00;100252.00;;;;5053483;28;20235;-66
2022/10/15 10:04:15;;;;;;;0.60;0.60;;;16.50;99.90;17.30;100257.00;;;;5035816;28;20337;-66
2022/10/15 10:06:53;;;;;;;0.43;0.43;;;16.70;99.90;17.30;100234.00;;;;5035606;28;20259;-65
2022/10/15 10:09:24;;;;;;;0.40;0.40;;;16.70;99.90;17.50;100262.00;;;;5052538;28;20232;-66
2022/10/15 10:12:01;;;;;;;0.60;0.60;;;16.90;99.90;17.90;100260.00;;;;5052144;28;20243;-65
2022/10/15 10:14:40;;;;;;;0.70;0.70;;;17.10;99.90;17.70;100267.00;;;;5035504;28;20532;-66
2022/10/15 10:17:17;;;;;;;0.70;0.70;;;17.10;99.90;17.80;100270.00;;;;5051906;28;20509;-66
2022/10/15 10:20:01;;;;;;;1.57;1.57;;;17.20;99.90;17.50;100269.00;;;;5035439;28;20229;-66
2022/10/15 10:33:51;;;;;;;0.30;0.30;;;16.80;99.90;17.30;100292.00;;;;5127345;27;20533;-67
2022/10/15 10:36:34;;;;;;;0.40;0.40;;;16.90;99.90;18.30;100288.00;;;;5090759;28;20181;-65
2022/10/15 10:39:28;;;;;;;0.97;0.60;;;17.40;99.90;18.30;100273.00;;;;5090531;28;20174;-67
2022/10/15 10:42:03;;;;;;;0.73;0.73;;;17.70;99.90;18.50;100274.00;;;;5089595;28;20184;-67
2022/10/15 10:44:39;;;;;;;0.87;0.87;;;17.70;99.90;17.80;100281.00;;;;5089936;28;20260;-67
2022/10/15 10:47:16;;;;;;;1.20;0.97;;;17.60;99.90;17.60;100290.00;;;;5089635;28;20274;-65
2022/10/15 10:49:49;;;;;;;0.50;0.50;;;17.40;99.90;18.20;100287.00;;;;5090991;28;20174;-65
2022/10/15 10:52:24;;;;;;;0.40;0.40;;;17.50;99.90;18.10;100282.00;;;;5106007;28;20211;-65
2022/10/15 10:55:19;;;;;;;0.40;0.40;;;17.60;99.90;19.00;100282.00;;;;5106223;28;20187;-66
2022/10/15 10:57:48;;;;;;;1.00;1.00;;;17.90;99.90;18.60;100275.00;;;;5089475;28;20620;-65
2022/10/15 11:00:23;;;;;;;0.97;0.97;;;18.00;99.90;18.30;100275.00;;;;5090628;28;20316;-66
2022/10/15 11:02:51;;;;;;;0.80;0.80;;;17.90;99.90;17.70;100274.00;;;;5088944;28;20179;-66
2022/10/15 11:05:25;;;;;;;1.20;1.10;;;17.60;99.90;17.70;100277.00;;;;5089045;28;20173;-66
2022/10/15 11:08:17;;;;;;;0.70;0.70;;;17.60;99.90;18.20;100288.00;;;;5090019;28;20194;-66
2022/10/15 11:11:06;;;;;;;0.37;0.37;;;17.60;99.90;18.10;100278.00;;;;5106118;28;20182;-66
2022/10/15 11:14:04;;;;;;;0.60;0.60;;;17.60;99.90;18.10;100283.00;;;;5089857;28;20533;-66
2022/10/15 11:16:58;;;;;;;0.93;0.93;;;17.70;99.90;18.30;100269.00;;;;5106053;28;20192;-66
2022/10/15 11:19:42;;;;;;;0.67;0.67;;;17.70;99.90;18.40;100277.00;;;;5105939;28;20186;-66
2022/10/15 11:22:59;;;;;;;0.40;0.40;;;17.80;99.90;19.00;100282.00;;;;5089605;28;20531;-66
2022/10/15 11:26:16;;;;;;;0.43;0.43;;;18.00;99.90;18.50;100286.00;;;;5088104;28;20237;-66
2022/10/15 11:28:58;;;;;;;0.33;0.33;;;17.90;99.90;18.60;100280.00;;;;5088889;28;20258;-66